sensor_id;sensor_type;location;lat;lon;timestamp;pressure;altitude;pressure_sealevel;temperature;humidity
2875;BME280;1445;52.600;13.328;2023-10-31T00:00:38;99017.22;;;13.13;100.00
2875;BME280;1445;52.600;13.328;2023-10-31T00:03:03;99007.66;;;13.10;100.00
2875;BME280;1445;52.600;13.328;2023-10-31T00:05:28;98994.31;;;13.16;100.00
2875;BME280;1445;52.600;13.328;2023-10-31T00:07:54;99001.75;;;13.12;100.00
2875;BME280;1445;52.600;13.328;2023-10-31T00:10:19;98996.44;;;13.03;100.00
2875;BME280;1445;52.600;13.328;2023-10-31T00:12:44;99004.34;;;13.05;100.00
2875;BME280;1445;52.600;13.328;2023-10-31T00:15:09;99002.75;;;13.04;100.00
2875;BME280;1445;52.600;13.328;2023-10-31T00:17:35;98993.59;;;13.19;100.00
2875;BME280;1445;52.600;13.328;2023-10-31T00:20:00;98993.97;;;13.18;100.00
2875;BME280;1445;52.600;13.328;2023-10-31T00:22:25;99003.72;;;13.11;100.00
2875;BME280;1445;52.600;13.328;2023-10-31T00:24:51;99015.75;;;13.19;100.00
2875;BME280;1445;52.600;13.328;2023-10-31T00:27:16;99023.69;;;13.21;100.00
2875;BME280;1445;52.600;13.328;2023-10-31T00:29:41;99018.00;;;13.13;100.00
2875;BME280;1445;52.600;13.328;2023-10-31T00:32:06;99033.19;;;13.04;100.00
2875;BME280;1445;52.600;13.328;2023-10-31T00:34:32;99029.53;;;13.00;100.00
2875;BME280;1445;52.600;13.328;2023-10-31T00:36:57;99024.28;;;12.95;100.00
2875;BME280;1445;52.600;13.328;2023-10-31T00:39:22;99030.34;;;12.84;100.00
2875;BME280;1445;52.600;13.328;2023-10-31T00:41:48;99045.09;;;12.88;100.00
2875;BME280;1445;52.600;13.328;2023-10-31T00:44:13;99021.78;;;12.89;100.00
2875;BME280;1445;52.600;13.328;2023-10-31T00:46:39;99015.75;;;12.68;100.00
2875;BME280;1445;52.600;13.328;2023-10-31T00:49:04;99024.06;;;12.68;100.00
2875;BME280;1445;52.600;13.328;2023-10-31T00:51:29;99018.69;;;12.75;100.00
2875;BME280;1445;52.600;13.328;2023-10-31T00:53:54;99029.84;;;12.79;100.00
2875;BME280;1445;52.600;13.328;2023-10-31T00:56:20;99021.00;;;12.73;100.00
2875;BME280;1445;52.600;13.328;2023-10-31T00:58:45;99015.38;;;12.85;100.00
2875;BME280;1445;52.600;13.328;2023-10-31T01:01:10;99020.47;;;12.83;100.00
2875;BME280;1445;52.600;13.328;2023-10-31T01:03:35;99034.13;;;12.92;100.00
2875;BME280;1445;52.600;13.328;2023-10-31T01:06:01;99032.84;;;12.89;100.00
2875;BME280;1445;52.600;13.328;2023-10-31T01:08:26;99034.75;;;12.85;100.00
2875;BME280;1445;52.600;13.328;2023-10-31T01:10:52;99057.56;;;12.82;100.00
2875;BME280;1445;52.600;13.328;2023-10-31T01:13:17;99046.06;;;12.80;100.00
2875;BME280;1445;52.600;13.328;2023-10-31T01:15:42;99033.59;;;12.71;100.00
2875;BME280;1445;52.600;13.328;2023-10-31T01:18:08;99033.41;;;12.63;100.00
2875;BME280;1445;52.600;13.328;2023-10-31T01:20:33;99026.53;;;12.73;100.00
2875;BME280;1445;52.600;13.328;2023-10-31T01:22:59;99020.84;;;12.66;100.00
2875;BME280;1445;52.600;13.328;2023-10-31T01:25:24;99027.69;;;12.56;100.00
2875;BME280;1445;52.600;13.328;2023-10-31T01:27:49;99020.06;;;12.50;100.00
2875;BME280;1445;52.600;13.328;2023-10-31T01:30:15;99025.22;;;12.51;100.00
2875;BME280;1445;52.600;13.328;2023-10-31T01:32:40;99012.91;;;12.49;100.00
2875;BME280;1445;52.600;13.328;2023-10-31T01:35:05;99009.16;;;12.41;100.00
2875;BME280;1445;52.600;13.328;2023-10-31T01:37:30;98998.75;;;12.50;100.00
2875;BME280;1445;52.600;13.328;2023-10-31T01:39:56;98989.72;;;12.37;100.00
2875;BME280;1445;52.600;13.328;2023-10-31T01:42:21;99000.69;;;12.34;100.00
2875;BME280;1445;52.600;13.328;2023-10-31T01:44:46;99001.25;;;12.39;100.00
2875;BME280;1445;52.600;13.328;2023-10-31T01:47:12;99010.47;;;12.31;100.00
2875;BME280;1445;52.600;13.328;2023-10-31T01:49:37;99023.22;;;12.20;100.00
2875;BME280;1445;52.600;13.328;2023-10-31T01:52:03;99025.56;;;12.18;100.00
2875;BME280;1445;52.600;13.328;2023-10-31T01:54:29;99029.25;;;12.10;100.00
2875;BME280;1445;52.600;13.328;2023-10-31T01:56:58;99025.00;;;12.12;100.00
2875;BME280;1445;52.600;13.328;2023-10-31T01:59:26;99020.28;;;12.13;100.00
2875;BME280;1445;52.600;13.328;2023-10-31T02:01:52;99028.94;;;12.11;100.00
2875;BME280;1445;52.600;13.328;2023-10-31T02:04:17;99017.78;;;12.08;100.00
2875;BME280;1445;52.600;13.328;2023-10-31T02:06:43;99021.75;;;11.94;100.00
2875;BME280;1445;52.600;13.328;2023-10-31T02:09:08;99015.69;;;11.89;100.00
2875;BME280;1445;52.600;13.328;2023-10-31T02:11:34;99012.59;;;11.90;100.00
2875;BME280;1445;52.600;13.328;2023-10-31T02:13:59;98995.75;;;11.96;100.00
2875;BME280;1445;52.600;13.328;2023-10-31T02:16:24;98994.16;;;11.94;100.00
2875;BME280;1445;52.600;13.328;2023-10-31T02:18:50;98997.34;;;11.97;100.00
2875;BME280;1445;52.600;13.328;2023-10-31T02:21:16;99000.84;;;11.93;100.00
2875;BME280;1445;52.600;13.328;2023-10-31T02:24:00;98994.50;;;11.93;100.00
2875;BME280;1445;52.600;13.328;2023-10-31T02:26:33;99004.03;;;11.96;100.00
2875;BME280;1445;52.600;13.328;2023-10-31T02:28:58;98990.84;;;11.89;100.00
2875;BME280;1445;52.600;13.328;2023-10-31T02:31:24;98997.88;;;11.86;100.00
2875;BME280;1445;52.600;13.328;2023-10-31T02:33:49;98985.44;;;11.80;100.00
2875;BME280;1445;52.600;13.328;2023-10-31T02:36:15;98979.84;;;11.77;100.00
2875;BME280;1445;52.600;13.328;2023-10-31T02:38:40;98970.28;;;11.74;100.00
2875;BME280;1445;52.600;13.328;2023-10-31T02:41:05;98989.25;;;11.76;100.00
2875;BME280;1445;52.600;13.328;2023-10-31T02:43:31;98993.63;;;11.77;100.00
2875;BME280;1445;52.600;13.328;2023-10-31T02:45:56;98995.13;;;11.86;100.00
2875;BME280;1445;52.600;13.328;2023-10-31T02:48:22;99001.06;;;11.88;100.00
2875;BME280;1445;52.600;13.328;2023-10-31T02:50:48;99007.31;;;11.85;100.00
2875;BME280;1445;52.600;13.328;2023-10-31T02:53:14;99008.56;;;11.76;100.00
2875;BME280;1445;52.600;13.328;2023-10-31T02:55:40;99014.56;;;11.78;100.00
2875;BME280;1445;52.600;13.328;2023-10-31T02:58:05;99009.94;;;11.82;100.00
2875;BME280;1445;52.600;13.328;2023-10-31T03:00:30;99007.75;;;11.87;100.00
2875;BME280;1445;52.600;13.328;2023-10-31T03:02:55;98997.09;;;11.74;100.00
2875;BME280;1445;52.600;13.328;2023-10-31T03:05:21;98989.22;;;11.88;100.00
2875;BME280;1445;52.600;13.328;2023-10-31T03:07:46;98988.91;;;11.77;100.00
2875;BME280;1445;52.600;13.328;2023-10-31T03:10:12;98987.50;;;11.83;100.00
2875;BME280;1445;52.600;13.328;2023-10-31T03:12:37;98993.63;;;11.77;100.00
2875;BME280;1445;52.600;13.328;2023-10-31T03:15:02;98985.69;;;11.75;100.00
2875;BME280;1445;52.600;13.328;2023-10-31T03:17:29;98982.94;;;11.75;100.00
2875;BME280;1445;52.600;13.328;2023-10-31T03:19:54;98992.88;;;11.64;100.00
2875;BME280;1445;52.600;13.328;2023-10-31T03:22:19;98982.19;;;11.62;100.00
2875;BME280;1445;52.600;13.328;2023-10-31T03:24:44;98979.28;;;11.43;100.00
2875;BME280;1445;52.600;13.328;2023-10-31T03:27:10;98981.94;;;11.39;100.00
2875;BME280;1445;52.600;13.328;2023-10-31T03:29:35;98976.09;;;11.41;100.00
2875;BME280;1445;52.600;13.328;2023-10-31T03:32:00;98983.31;;;11.33;100.00
2875;BME280;1445;52.600;13.328;2023-10-31T03:34:25;98986.44;;;11.32;100.00
2875;BME280;1445;52.600;13.328;2023-10-31T03:36:51;98985.06;;;11.26;100.00
2875;BME280;1445;52.600;13.328;2023-10-31T03:39:16;98991.16;;;11.31;100.00
2875;BME280;1445;52.600;13.328;2023-10-31T03:41:41;98984.06;;;11.30;100.00
2875;BME280;1445;52.600;13.328;2023-10-31T03:44:07;98997.94;;;11.34;100.00
2875;BME280;1445;52.600;13.328;2023-10-31T03:46:32;98990.38;;;11.18;100.00
2875;BME280;1445;52.600;13.328;2023-10-31T03:48:58;98996.38;;;11.20;100.00
2875;BME280;1445;52.600;13.328;2023-10-31T03:51:23;98993.03;;;11.15;100.00
2875;BME280;1445;52.600;13.328;2023-10-31T03:53:48;98999.72;;;11.14;100.00
2875;BME280;1445;52.600;13.328;2023-10-31T03:56:13;98994.88;;;11.11;100.00
2875;BME280;1445;52.600;13.328;2023-10-31T03:58:40;98999.94;;;11.21;100.00
2875;BME280;1445;52.600;13.328;2023-10-31T04:01:05;98998.81;;;11.10;100.00
2875;BME280;1445;52.600;13.328;2023-10-31T04:03:30;99002.31;;;11.22;100.00
2875;BME280;1445;52.600;13.328;2023-10-31T04:05:55;98996.69;;;11.31;100.00
2875;BME280;1445;52.600;13.328;2023-10-31T04:08:22;99002.91;;;11.28;100.00
2875;BME280;1445;52.600;13.328;2023-10-31T04:10:48;98999.09;;;11.33;100.00
2875;BME280;1445;52.600;13.328;2023-10-31T04:13:13;99002.44;;;11.26;100.00
2875;BME280;1445;52.600;13.328;2023-10-31T04:15:38;99001.72;;;11.29;100.00
2875;BME280;1445;52.600;13.328;2023-10-31T04:18:04;98998.59;;;11.43;100.00
2875;BME280;1445;52.600;13.328;2023-10-31T04:20:29;98997.97;;;11.21;100.00
2875;BME280;1445;52.600;13.328;2023-10-31T04:22:54;98995.09;;;11.18;100.00
2875;BME280;1445;52.600;13.328;2023-10-31T04:25:19;99002.44;;;11.26;100.00
2875;BME280;1445;52.600;13.328;2023-10-31T04:27:45;99001.78;;;11.17;100.00
2875;BME280;1445;52.600;13.328;2023-10-31T04:30:11;98992.81;;;11.08;100.00
2875;BME280;1445;52.600;13.328;2023-10-31T04:32:36;98985.47;;;11.12;100.00
2875;BME280;1445;52.600;13.328;2023-10-31T04:35:01;98991.66;;;11.09;100.00
2875;BME280;1445;52.600;13.328;2023-10-31T04:37:26;98985.94;;;11.14;100.00
2875;BME280;1445;52.600;13.328;2023-10-31T04:39:52;98980.50;;;11.17;100.00
2875;BME280;1445;52.600;13.328;2023-10-31T04:42:17;98977.97;;;11.12;100.00
2875;BME280;1445;52.600;13.328;2023-10-31T04:44:43;98982.38;;;11.13;100.00
2875;BME280;1445;52.600;13.328;2023-10-31T04:47:08;98980.63;;;11.09;100.00
2875;BME280;1445;52.600;13.328;2023-10-31T04:49:34;98977.97;;;11.25;100.00
2875;BME280;1445;52.600;13.328;2023-10-31T04:51:59;98971.88;;;11.19;100.00
2875;BME280;1445;52.600;13.328;2023-10-31T04:54:25;98970.28;;;11.18;100.00
2875;BME280;1445;52.600;13.328;2023-10-31T04:56:50;98965.47;;;11.15;100.00
2875;BME280;1445;52.600;13.328;2023-10-31T04:59:15;98963.97;;;11.17;100.00
2875;BME280;1445;52.600;13.328;2023-10-31T05:01:40;98964.88;;;11.21;100.00
2875;BME280;1445;52.600;13.328;2023-10-31T05:04:06;98969.81;;;11.16;100.00
2875;BME280;1445;52.600;13.328;2023-10-31T05:06:31;98965.47;;;11.15;100.00
2875;BME280;1445;52.600;13.328;2023-10-31T05:08:56;98966.84;;;11.21;100.00
2875;BME280;1445;52.600;13.328;2023-10-31T05:11:22;98968.31;;;11.18;100.00
2875;BME280;1445;52.600;13.328;2023-10-31T05:13:47;98968.69;;;11.17;100.00
2875;BME280;1445;52.600;13.328;2023-10-31T05:16:12;98972.56;;;11.16;100.00
2875;BME280;1445;52.600;13.328;2023-10-31T05:18:38;98976.69;;;11.22;100.00
2875;BME280;1445;52.600;13.328;2023-10-31T05:21:03;98977.41;;;11.19;100.00
2875;BME280;1445;52.600;13.328;2023-10-31T05:23:29;98974.75;;;11.22;100.00
2875;BME280;1445;52.600;13.328;2023-10-31T05:25:54;98975.09;;;11.21;100.00
2875;BME280;1445;52.600;13.328;2023-10-31T05:28:20;98972.69;;;11.19;100.00
2875;BME280;1445;52.600;13.328;2023-10-31T05:30:45;98971.28;;;11.26;100.00
2875;BME280;1445;52.600;13.328;2023-10-31T05:33:11;98968.78;;;11.20;100.00
2875;BME280;1445;52.600;13.328;2023-10-31T05:35:36;98966.34;;;11.31;100.00
2875;BME280;1445;52.600;13.328;2023-10-31T05:38:01;98968.78;;;11.20;100.00
2875;BME280;1445;52.600;13.328;2023-10-31T05:40:27;98963.81;;;11.26;100.00
2875;BME280;1445;52.600;13.328;2023-10-31T05:42:54;98963.47;;;11.28;100.00
2875;BME280;1445;52.600;13.328;2023-10-31T05:45:19;98965.06;;;11.29;100.00
2875;BME280;1445;52.600;13.328;2023-10-31T05:47:45;98963.91;;;11.30;100.00
2875;BME280;1445;52.600;13.328;2023-10-31T05:50:10;98970.59;;;11.29;100.00
2875;BME280;1445;52.600;13.328;2023-10-31T05:52:35;98960.81;;;11.31;100.00
2875;BME280;1445;52.600;13.328;2023-10-31T05:55:01;98968.03;;;11.36;100.00
2875;BME280;1445;52.600;13.328;2023-10-31T05:57:27;98958.28;;;11.38;100.00
2875;BME280;1445;52.600;13.328;2023-10-31T05:59:52;98967.59;;;11.34;100.00
2875;BME280;1445;52.600;13.328;2023-10-31T06:02:17;98980.34;;;11.38;100.00
2875;BME280;1445;52.600;13.328;2023-10-31T06:04:42;98975.72;;;11.42;100.00
2875;BME280;1445;52.600;13.328;2023-10-31T06:07:08;98985.59;;;11.43;100.00
2875;BME280;1445;52.600;13.328;2023-10-31T06:09:33;98982.94;;;11.47;100.00
2875;BME280;1445;52.600;13.328;2023-10-31T06:11:59;98985.69;;;11.47;100.00
2875;BME280;1445;52.600;13.328;2023-10-31T06:14:24;98986.97;;;11.50;100.00
2875;BME280;1445;52.600;13.328;2023-10-31T06:16:50;98980.75;;;11.53;100.00
2875;BME280;1445;52.600;13.328;2023-10-31T06:19:16;98978.09;;;11.56;100.00
2875;BME280;1445;52.600;13.328;2023-10-31T06:21:41;98986.94;;;11.62;100.00
2875;BME280;1445;52.600;13.328;2023-10-31T06:24:06;98986.94;;;11.62;100.00
2875;BME280;1445;52.600;13.328;2023-10-31T06:26:32;98983.69;;;11.60;100.00
2875;BME280;1445;52.600;13.328;2023-10-31T06:28:58;98992.78;;;11.60;100.00
2875;BME280;1445;52.600;13.328;2023-10-31T06:31:23;98996.09;;;11.66;100.00
2875;BME280;1445;52.600;13.328;2023-10-31T06:33:48;98998.50;;;11.67;100.00
2875;BME280;1445;52.600;13.328;2023-10-31T06:36:14;98990.69;;;11.69;100.00
2875;BME280;1445;52.600;13.328;2023-10-31T06:38:40;98997.91;;;11.74;100.00
2875;BME280;1445;52.600;13.328;2023-10-31T06:41:05;99004.31;;;11.78;100.00
2875;BME280;1445;52.600;13.328;2023-10-31T06:43:30;99002.16;;;11.84;100.00
2875;BME280;1445;52.600;13.328;2023-10-31T06:45:56;99006.38;;;11.81;100.00
2875;BME280;1445;52.600;13.328;2023-10-31T06:48:22;99018.59;;;11.80;100.00
2875;BME280;1445;52.600;13.328;2023-10-31T06:50:47;99004.63;;;11.89;100.00
2875;BME280;1445;52.600;13.328;2023-10-31T06:53:12;99010.84;;;11.86;100.00
2875;BME280;1445;52.600;13.328;2023-10-31T06:55:38;99018.00;;;11.87;100.00
2875;BME280;1445;52.600;13.328;2023-10-31T06:58:03;99009.47;;;11.92;100.00
2875;BME280;1445;52.600;13.328;2023-10-31T07:00:28;99022.09;;;11.93;100.00
2875;BME280;1445;52.600;13.328;2023-10-31T07:02:54;99019.44;;;11.97;100.00
2875;BME280;1445;52.600;13.328;2023-10-31T07:05:19;99018.63;;;11.96;100.00
2875;BME280;1445;52.600;13.328;2023-10-31T07:07:47;99018.03;;;12.03;100.00
2875;BME280;1445;52.600;13.328;2023-10-31T07:10:12;99031.50;;;12.04;100.00
2875;BME280;1445;52.600;13.328;2023-10-31T07:12:38;99034.78;;;12.10;100.00
2875;BME280;1445;52.600;13.328;2023-10-31T07:15:03;99039.97;;;12.11;100.00
2875;BME280;1445;52.600;13.328;2023-10-31T07:17:28;99050.19;;;12.11;100.00
2875;BME280;1445;52.600;13.328;2023-10-31T07:19:54;99050.19;;;12.11;100.00
2875;BME280;1445;52.600;13.328;2023-10-31T07:22:19;99063.31;;;12.14;100.00
2875;BME280;1445;52.600;13.328;2023-10-31T07:24:44;99074.34;;;12.14;100.00
2875;BME280;1445;52.600;13.328;2023-10-31T07:27:10;99064.47;;;12.13;100.00
2875;BME280;1445;52.600;13.328;2023-10-31T07:29:35;99078.97;;;12.10;100.00
2875;BME280;1445;52.600;13.328;2023-10-31T07:32:00;99063.81;;;12.04;100.00
2875;BME280;1445;52.600;13.328;2023-10-31T07:34:26;99065.44;;;12.05;100.00
2875;BME280;1445;52.600;13.328;2023-10-31T07:36:51;99066.56;;;12.04;100.00
2875;BME280;1445;52.600;13.328;2023-10-31T07:39:17;99079.16;;;12.01;100.00
2875;BME280;1445;52.600;13.328;2023-10-31T07:41:42;99088.56;;;12.00;100.00
2875;BME280;1445;52.600;13.328;2023-10-31T07:44:07;99063.19;;;11.94;100.00
2875;BME280;1445;52.600;13.328;2023-10-31T07:46:33;99071.69;;;11.89;100.00
2875;BME280;1445;52.600;13.328;2023-10-31T07:48:58;99066.19;;;11.89;100.00
2875;BME280;1445;52.600;13.328;2023-10-31T07:51:23;99067.56;;;11.83;100.00
2875;BME280;1445;52.600;13.328;2023-10-31T07:53:48;99076.88;;;11.79;100.00
2875;BME280;1445;52.600;13.328;2023-10-31T07:56:14;99083.84;;;11.73;100.00
2875;BME280;1445;52.600;13.328;2023-10-31T07:58:40;99073.47;;;11.69;100.00
2875;BME280;1445;52.600;13.328;2023-10-31T08:01:05;99077.25;;;11.77;100.00
2875;BME280;1445;52.600;13.328;2023-10-31T08:03:30;99079.44;;;11.84;100.00
2875;BME280;1445;52.600;13.328;2023-10-31T08:05:56;99093.34;;;11.87;100.00
2875;BME280;1445;52.600;13.328;2023-10-31T08:08:21;99071.81;;;11.93;100.00
2875;BME280;1445;52.600;13.328;2023-10-31T08:10:47;99089.63;;;11.96;100.00
2875;BME280;1445;52.600;13.328;2023-10-31T08:13:12;99085.28;;;11.94;100.00
2875;BME280;1445;52.600;13.328;2023-10-31T08:15:38;99080.53;;;11.95;100.00
2875;BME280;1445;52.600;13.328;2023-10-31T08:18:03;99084.09;;;11.96;100.00
2875;BME280;1445;52.600;13.328;2023-10-31T08:20:28;99072.53;;;11.90;100.00
2875;BME280;1445;52.600;13.328;2023-10-31T08:22:58;99097.72;;;11.88;100.00
2875;BME280;1445;52.600;13.328;2023-10-31T08:25:23;99068.94;;;11.89;100.00
2875;BME280;1445;52.600;13.328;2023-10-31T08:27:48;99074.47;;;11.89;100.00
2875;BME280;1445;52.600;13.328;2023-10-31T08:30:14;99077.94;;;11.86;100.00
2875;BME280;1445;52.600;13.328;2023-10-31T08:32:39;99093.69;;;11.86;100.00
2875;BME280;1445;52.600;13.328;2023-10-31T08:35:04;99080.72;;;11.86;100.00
2875;BME280;1445;52.600;13.328;2023-10-31T08:37:30;99070.81;;;11.85;100.00
2875;BME280;1445;52.600;13.328;2023-10-31T08:39:55;99076.19;;;11.82;100.00
2875;BME280;1445;52.600;13.328;2023-10-31T08:42:20;99077.78;;;11.83;100.00
2875;BME280;1445;52.600;13.328;2023-10-31T08:44:45;99065.84;;;11.91;100.00
2875;BME280;1445;52.600;13.328;2023-10-31T08:47:11;99071.00;;;11.92;100.00
2875;BME280;1445;52.600;13.328;2023-10-31T08:49:37;99051.34;;;11.94;100.00
2875;BME280;1445;52.600;13.328;2023-10-31T08:52:02;99059.25;;;11.96;100.00
2875;BME280;1445;52.600;13.328;2023-10-31T08:54:29;99061.78;;;12.01;100.00
2875;BME280;1445;52.600;13.328;2023-10-31T08:56:54;99054.28;;;12.01;100.00
2875;BME280;1445;52.600;13.328;2023-10-31T08:59:19;99051.78;;;11.96;100.00
2875;BME280;1445;52.600;13.328;2023-10-31T09:01:45;99024.53;;;11.94;100.00
2875;BME280;1445;52.600;13.328;2023-10-31T09:04:10;99030.03;;;11.94;100.00
2875;BME280;1445;52.600;13.328;2023-10-31T09:06:35;99015.97;;;12.00;100.00
2875;BME280;1445;52.600;13.328;2023-10-31T09:09:01;99012.59;;;12.06;100.00
2875;BME280;1445;52.600;13.328;2023-10-31T09:11:26;99004.41;;;12.10;100.00
2875;BME280;1445;52.600;13.328;2023-10-31T09:13:51;99015.47;;;12.10;100.00
2875;BME280;1445;52.600;13.328;2023-10-31T09:16:17;98996.06;;;12.22;100.00
2875;BME280;1445;52.600;13.328;2023-10-31T09:18:42;99010.06;;;12.29;100.00
2875;BME280;1445;52.600;13.328;2023-10-31T09:21:08;99032.69;;;12.35;100.00
2875;BME280;1445;52.600;13.328;2023-10-31T09:23:34;98995.44;;;12.29;100.00
2875;BME280;1445;52.600;13.328;2023-10-31T09:25:59;99045.44;;;12.39;100.00
2875;BME280;1445;52.600;13.328;2023-10-31T09:28:24;99016.72;;;12.28;100.00
2875;BME280;1445;52.600;13.328;2023-10-31T09:30:49;99018.88;;;12.19;100.00
2875;BME280;1445;52.600;13.328;2023-10-31T09:33:15;99047.19;;;12.16;100.00
2875;BME280;1445;52.600;13.328;2023-10-31T09:35:40;99008.34;;;12.09;100.00
2875;BME280;1445;52.600;13.328;2023-10-31T09:38:05;99021.88;;;12.14;100.00
2875;BME280;1445;52.600;13.328;2023-10-31T09:40:31;98989.44;;;12.11;100.00
2875;BME280;1445;52.600;13.328;2023-10-31T09:42:56;99012.34;;;12.11;100.00
2875;BME280;1445;52.600;13.328;2023-10-31T09:45:22;98997.09;;;12.17;100.00
2875;BME280;1445;52.600;13.328;2023-10-31T09:47:47;99009.06;;;12.22;100.00
2875;BME280;1445;52.600;13.328;2023-10-31T09:50:12;99014.94;;;12.20;100.00
2875;BME280;1445;52.600;13.328;2023-10-31T09:52:38;99017.38;;;12.22;100.00
2875;BME280;1445;52.600;13.328;2023-10-31T09:55:04;99002.28;;;12.19;100.00
2875;BME280;1445;52.600;13.328;2023-10-31T09:57:30;99003.09;;;12.20;100.00
2875;BME280;1445;52.600;13.328;2023-10-31T09:59:55;99021.44;;;12.12;100.00
2875;BME280;1445;52.600;13.328;2023-10-31T10:02:20;99010.50;;;12.15;100.00
2875;BME280;1445;52.600;13.328;2023-10-31T10:04:47;99046.50;;;12.19;100.00
2875;BME280;1445;52.600;13.328;2023-10-31T10:07:15;99059.59;;;12.22;100.00
2875;BME280;1445;52.600;13.328;2023-10-31T10:09:45;99033.28;;;12.28;100.00
2875;BME280;1445;52.600;13.328;2023-10-31T10:12:14;99027.78;;;12.28;100.00
2875;BME280;1445;52.600;13.328;2023-10-31T10:14:40;99028.69;;;12.32;100.00
2875;BME280;1445;52.600;13.328;2023-10-31T10:17:15;99049.81;;;12.40;100.00
2875;BME280;1445;52.600;13.328;2023-10-31T10:19:41;99037.69;;;12.45;100.00
2875;BME280;1445;52.600;13.328;2023-10-31T10:22:06;99039.03;;;12.51;100.00
2875;BME280;1445;52.600;13.328;2023-10-31T10:24:32;99053.56;;;12.64;100.00
2875;BME280;1445;52.600;13.328;2023-10-31T10:26:57;99057.75;;;12.58;100.00
2875;BME280;1445;52.600;13.328;2023-10-31T10:29:23;99063.81;;;12.48;100.00
2875;BME280;1445;52.600;13.328;2023-10-31T10:31:48;99055.97;;;12.50;100.00
2875;BME280;1445;52.600;13.328;2023-10-31T10:34:14;99093.03;;;12.49;100.00
2875;BME280;1445;52.600;13.328;2023-10-31T10:36:39;99046.44;;;12.47;100.00
2875;BME280;1445;52.600;13.328;2023-10-31T10:39:04;99045.19;;;12.45;100.00
2875;BME280;1445;52.600;13.328;2023-10-31T10:41:31;99053.47;;;12.45;100.00
2875;BME280;1445;52.600;13.328;2023-10-31T10:44:05;99054.97;;;12.42;100.00
2875;BME280;1445;52.600;13.328;2023-10-31T10:46:34;99055.97;;;12.50;100.00
2875;BME280;1445;52.600;13.328;2023-10-31T10:49:02;99066.56;;;12.48;100.00
2875;BME280;1445;52.600;13.328;2023-10-31T10:51:29;99052.66;;;12.44;100.00
2875;BME280;1445;52.600;13.328;2023-10-31T10:53:57;99056.69;;;12.47;100.00
2875;BME280;1445;52.600;13.328;2023-10-31T10:56:34;99060.34;;;12.51;100.00
2875;BME280;1445;52.600;13.328;2023-10-31T10:59:03;99065.16;;;12.54;100.00
2875;BME280;1445;52.600;13.328;2023-10-31T11:01:32;99044.94;;;12.50;100.00
2875;BME280;1445;52.600;13.328;2023-10-31T11:03:58;99039.66;;;12.60;100.00
2875;BME280;1445;52.600;13.328;2023-10-31T11:06:24;99037.34;;;12.62;100.00
2875;BME280;1445;52.600;13.328;2023-10-31T11:08:50;99039.66;;;12.76;100.00
2875;BME280;1445;52.600;13.328;2023-10-31T11:11:17;99025.47;;;12.78;100.00
2875;BME280;1445;52.600;13.328;2023-10-31T11:13:43;99047.22;;;12.79;100.00
2875;BME280;1445;52.600;13.328;2023-10-31T11:16:12;99022.78;;;12.81;100.00
2875;BME280;1445;52.600;13.328;2023-10-31T11:18:38;99036.34;;;12.86;100.00
2875;BME280;1445;52.600;13.328;2023-10-31T11:21:04;99026.44;;;12.85;100.00
2875;BME280;1445;52.600;13.328;2023-10-31T11:23:29;99040.28;;;12.85;100.00
2875;BME280;1445;52.600;13.328;2023-10-31T11:25:54;99049.00;;;12.87;100.00
2875;BME280;1445;52.600;13.328;2023-10-31T11:28:20;99032.22;;;12.80;100.00
2875;BME280;1445;52.600;13.328;2023-10-31T11:30:47;99040.91;;;12.79;100.00
2875;BME280;1445;52.600;13.328;2023-10-31T11:33:14;99053.47;;;12.76;100.00
2875;BME280;1445;52.600;13.328;2023-10-31T11:35:40;99058.66;;;12.78;100.00
2875;BME280;1445;52.600;13.328;2023-10-31T11:38:06;99056.22;;;12.76;100.00
2875;BME280;1445;52.600;13.328;2023-10-31T11:40:32;99060.97;;;12.76;100.00
2875;BME280;1445;52.600;13.328;2023-10-31T11:42:58;99060.59;;;12.77;100.00
2875;BME280;1445;52.600;13.328;2023-10-31T11:45:27;99057.03;;;12.77;100.00
2875;BME280;1445;52.600;13.328;2023-10-31T11:47:55;99075.75;;;12.83;100.00
2875;BME280;1445;52.600;13.328;2023-10-31T11:50:21;99074.34;;;12.89;100.00
2875;BME280;1445;52.600;13.328;2023-10-31T11:52:58;99080.50;;;12.99;100.00
2875;BME280;1445;52.600;13.328;2023-10-31T11:55:24;99087.78;;;13.07;100.00
2875;BME280;1445;52.600;13.328;2023-10-31T11:57:50;99083.25;;;12.99;100.00
2875;BME280;1445;52.600;13.328;2023-10-31T12:00:22;99097.44;;;12.97;100.00
2875;BME280;1445;52.600;13.328;2023-10-31T12:02:59;99118.38;;;12.98;100.00
2875;BME280;1445;52.600;13.328;2023-10-31T12:05:25;99122.53;;;12.88;100.00
2875;BME280;1445;52.600;13.328;2023-10-31T12:07:51;99119.91;;;12.80;100.00
2875;BME280;1445;52.600;13.328;2023-10-31T12:10:26;99111.19;;;12.78;100.00
2875;BME280;1445;52.600;13.328;2023-10-31T12:12:52;99120.28;;;12.78;100.00
2875;BME280;1445;52.600;13.328;2023-10-31T12:15:18;99139.88;;;12.73;100.00
2875;BME280;1445;52.600;13.328;2023-10-31T12:17:43;99163.63;;;12.74;100.00
2875;BME280;1445;52.600;13.328;2023-10-31T12:20:09;99110.28;;;12.74;100.00
2875;BME280;1445;52.600;13.328;2023-10-31T12:22:35;99122.41;;;12.69;100.00
2875;BME280;1445;52.600;13.328;2023-10-31T12:25:01;99117.25;;;12.68;100.00
2875;BME280;1445;52.600;13.328;2023-10-31T12:27:41;99101.63;;;12.75;100.00
2875;BME280;1445;52.600;13.328;2023-10-31T12:30:07;99112.59;;;12.87;100.00
2875;BME280;1445;52.600;13.328;2023-10-31T12:32:32;99134.91;;;12.79;100.00
2875;BME280;1445;52.600;13.328;2023-10-31T12:34:58;99114.91;;;12.70;100.00
2875;BME280;1445;52.600;13.328;2023-10-31T12:37:24;99138.56;;;12.67;100.00
2875;BME280;1445;52.600;13.328;2023-10-31T12:39:49;99123.81;;;12.63;100.00
2875;BME280;1445;52.600;13.328;2023-10-31T12:42:15;99123.03;;;12.62;100.00
2875;BME280;1445;52.600;13.328;2023-10-31T12:44:40;99135.16;;;12.58;100.00
2875;BME280;1445;52.600;13.328;2023-10-31T12:47:07;99126.75;;;12.54;100.00
2875;BME280;1445;52.600;13.328;2023-10-31T12:49:32;99136.31;;;12.57;100.00
2875;BME280;1445;52.600;13.328;2023-10-31T12:52:01;99134.44;;;12.61;100.00